Terminal Aerodrome Forecast
Issued by NWS

Home | Current Version | Previous Version | Text Only | Print | Product List | Glossary On
Versions: 1 2 3 4 5 6 7 8 9 10 11 12 13 14
149
FTUS46 KLOX 201743
TAFPMD
TAF
KPMD 201743Z 2018/2118 24010KT P6SM SKC
     FM201900 24015G25KT P6SM SKC
     FM202200 24020G30KT P6SM SKC
     FM210400 24012KT P6SM SKC
     FM211000 24008KT P6SM SKC=

USA.gov is the U.S. government's official web portal to all federal, state and local government web resources and services.